createdAt,value
2023-05-24T00:01:56.633Z,1.07
2023-05-24T00:04:25.796Z,1.67
2023-05-24T00:06:55.999Z,1.20
2023-05-24T00:09:24.623Z,1.87
2023-05-24T00:11:54.574Z,1.40
2023-05-24T00:14:23.224Z,1.40
2023-05-24T00:16:51.874Z,1.60
2023-05-24T00:19:22.581Z,1.67
2023-05-24T00:21:51.393Z,2.07
2023-05-24T00:24:20.140Z,1.30
2023-05-24T00:26:49.398Z,1.87
2023-05-24T00:29:19.359Z,1.50
2023-05-24T00:31:47.999Z,1.97
2023-05-24T00:34:16.738Z,1.90
2023-05-24T00:36:45.714Z,1.50
2023-05-24T00:39:14.336Z,1.67
2023-05-24T00:41:42.937Z,1.93
2023-05-24T00:44:11.833Z,1.43
2023-05-24T00:46:41.877Z,1.50
2023-05-24T00:49:10.891Z,1.13
2023-05-24T00:51:39.700Z,1.60
2023-05-24T00:54:08.447Z,1.27
2023-05-24T00:56:37.169Z,1.90
2023-05-24T00:59:05.826Z,1.83
2023-05-24T01:01:34.509Z,1.30
2023-05-24T01:04:05.546Z,1.43
2023-05-24T01:06:40.474Z,2.00
2023-05-24T01:09:13.113Z,1.27
2023-05-24T01:11:46.825Z,1.90
2023-05-24T01:14:21.280Z,1.40
2023-05-24T01:16:52.082Z,1.17
2023-05-24T01:19:50.530Z,1.40
2023-05-24T01:22:25.153Z,1.40
2023-05-24T01:24:57.674Z,1.40
2023-05-24T01:27:28.823Z,1.17
2023-05-24T01:29:58.150Z,1.27
2023-05-24T01:32:26.846Z,1.93
2023-05-24T01:34:55.493Z,1.57
2023-05-24T01:37:24.348Z,1.70
2023-05-24T01:39:53.120Z,1.33
2023-05-24T01:42:26.326Z,1.37
2023-05-24T01:45:02.638Z,1.40
2023-05-24T01:47:36.583Z,1.60
2023-05-24T01:50:09.005Z,1.63
2023-05-24T01:52:37.575Z,1.53
2023-05-24T01:55:06.848Z,1.60
2023-05-24T01:57:36.199Z,1.57
2023-05-24T02:00:07.108Z,1.67
2023-05-24T02:02:36.342Z,1.53
2023-05-24T02:05:05.386Z,1.67
2023-05-24T02:07:33.973Z,1.60
2023-05-24T02:10:02.609Z,1.50
2023-05-24T02:12:31.196Z,1.40
2023-05-24T02:15:00.196Z,1.30
2023-05-24T02:17:33.011Z,1.50
2023-05-24T02:20:01.826Z,1.63
2023-05-24T02:22:30.559Z,1.50
2023-05-24T02:24:59.178Z,1.53
2023-05-24T02:27:27.750Z,1.83
2023-05-24T02:29:56.312Z,1.57
2023-05-24T02:32:24.878Z,1.63
2023-05-24T02:34:54.779Z,1.27
2023-05-24T02:37:23.409Z,1.80
2023-05-24T02:39:51.966Z,1.80
2023-05-24T02:42:20.879Z,1.50
2023-05-24T02:44:49.516Z,1.67
2023-05-24T02:47:18.165Z,1.73
2023-05-24T02:49:46.796Z,1.77
2023-05-24T02:52:21.572Z,1.70
2023-05-24T02:54:50.224Z,1.40
2023-05-24T02:57:18.914Z,1.70
2023-05-24T02:59:47.484Z,1.30
2023-05-24T03:02:18.030Z,1.37
2023-05-24T03:04:46.628Z,1.63
2023-05-24T03:07:16.596Z,1.93
2023-05-24T03:09:45.233Z,2.40
2023-05-24T03:12:14.055Z,1.50
2023-05-24T03:14:42.609Z,1.90
2023-05-24T03:17:11.185Z,1.63
2023-05-24T03:19:39.778Z,1.50
2023-05-24T03:22:08.355Z,1.50
2023-05-24T03:24:38.419Z,2.00
2023-05-24T03:27:07.402Z,1.43
2023-05-24T03:29:36.028Z,1.63
2023-05-24T03:32:04.673Z,1.90
2023-05-24T03:34:33.287Z,1.83
2023-05-24T03:37:01.909Z,1.67
2023-05-24T03:39:30.454Z,1.70
2023-05-24T03:42:00.377Z,1.70
2023-05-24T03:44:28.997Z,2.10
2023-05-24T03:46:57.557Z,1.60
2023-05-24T03:49:26.200Z,1.80
2023-05-24T03:51:54.792Z,1.60
2023-05-24T03:54:23.419Z,2.20
2023-05-24T03:56:53.180Z,1.47
2023-05-24T03:59:23.373Z,1.60
2023-05-24T04:01:51.988Z,2.07
2023-05-24T04:04:20.746Z,1.50
2023-05-24T04:06:49.695Z,1.60
2023-05-24T04:09:18.336Z,1.53
2023-05-24T04:11:46.972Z,2.07
2023-05-24T04:14:15.602Z,1.83
2023-05-24T04:16:45.767Z,1.80
2023-05-24T04:19:14.386Z,1.97
2023-05-24T04:21:42.970Z,2.20
2023-05-24T04:24:11.627Z,1.90
2023-05-24T04:26:40.366Z,1.67
2023-05-24T04:29:10.160Z,1.90
2023-05-24T04:31:39.967Z,1.67
2023-05-24T04:34:13.033Z,1.80
2023-05-24T04:36:41.830Z,1.83
2023-05-24T04:39:11.486Z,2.33
2023-05-24T04:41:40.591Z,2.20
2023-05-24T04:44:09.818Z,1.90
2023-05-24T04:46:38.506Z,2.17
2023-05-24T04:49:08.396Z,2.10
2023-05-24T04:51:38.775Z,2.03
2023-05-24T04:54:09.026Z,2.00
2023-05-24T04:56:39.022Z,2.10
2023-05-24T04:59:07.840Z,2.30
2023-05-24T05:01:36.538Z,2.43
2023-05-24T05:04:05.424Z,2.47
2023-05-24T05:06:38.469Z,2.40
2023-05-24T05:09:09.471Z,2.37
2023-05-24T05:11:38.539Z,2.13
2023-05-24T05:14:09.378Z,2.50
2023-05-24T05:16:38.002Z,2.67
2023-05-24T05:19:07.146Z,2.40
2023-05-24T05:21:36.383Z,2.50
2023-05-24T05:24:05.290Z,2.30
2023-05-24T05:26:35.569Z,2.53
2023-05-24T05:29:04.302Z,2.60
2023-05-24T05:31:33.095Z,2.37
2023-05-24T05:34:01.662Z,2.20
2023-05-24T05:36:30.357Z,2.37
2023-05-24T05:38:58.965Z,2.50
2023-05-24T05:41:27.594Z,2.23
2023-05-24T05:43:57.491Z,2.83
2023-05-24T05:46:26.178Z,2.80
2023-05-24T05:48:54.807Z,2.50
2023-05-24T05:51:23.394Z,2.00
2023-05-24T05:53:52.051Z,2.47
2023-05-24T05:56:20.925Z,2.77
2023-05-24T05:58:49.517Z,2.33
2023-05-24T06:01:19.478Z,2.60
2023-05-24T06:03:48.463Z,2.50
2023-05-24T06:06:17.204Z,2.10
2023-05-24T06:08:45.883Z,2.70
2023-05-24T06:11:14.504Z,2.00
2023-05-24T06:13:43.087Z,2.63
2023-05-24T06:16:11.758Z,2.50
2023-05-24T06:18:50.103Z,2.60
2023-05-24T06:21:22.749Z,2.37
2023-05-24T06:23:51.961Z,2.13
2023-05-24T06:26:21.346Z,2.80
2023-05-24T06:28:51.488Z,2.23
2023-05-24T06:31:20.190Z,2.77
2023-05-24T06:34:02.644Z,2.33
2023-05-24T06:36:34.009Z,2.97
2023-05-24T06:39:02.658Z,2.67
2023-05-24T06:41:31.358Z,2.67
2023-05-24T06:44:00.000Z,2.53
2023-05-24T06:46:28.590Z,2.60
2023-05-24T06:48:58.717Z,2.10
2023-05-24T06:51:27.410Z,2.30
2023-05-24T06:53:56.094Z,2.73
2023-05-24T06:56:25.277Z,2.47
2023-05-24T06:58:53.932Z,2.77
2023-05-24T07:01:23.100Z,2.47
2023-05-24T07:03:51.836Z,3.07
2023-05-24T07:06:21.971Z,2.53
2023-05-24T07:08:50.652Z,2.03
2023-05-24T07:11:19.285Z,2.70
2023-05-24T07:13:47.939Z,3.20
2023-05-24T07:16:16.593Z,2.70
2023-05-24T07:18:45.220Z,3.07
2023-05-24T07:21:13.933Z,2.70
2023-05-24T07:23:43.882Z,2.43
2023-05-24T07:26:12.684Z,2.57
2023-05-24T07:28:41.503Z,2.60
2023-05-24T07:31:10.478Z,2.77
2023-05-24T07:33:39.343Z,2.87
2023-05-24T07:36:08.824Z,2.53
2023-05-24T07:38:37.436Z,2.70
2023-05-24T07:41:08.658Z,2.37
2023-05-24T07:43:38.293Z,2.30
2023-05-24T07:46:07.179Z,2.27
2023-05-24T07:48:35.819Z,2.17
2023-05-24T07:51:04.444Z,2.40
2023-05-24T07:53:34.121Z,2.43
2023-05-24T07:56:02.704Z,2.00
2023-05-24T07:58:32.742Z,2.67
2023-05-24T08:01:01.570Z,2.33
2023-05-24T08:03:30.252Z,2.40
2023-05-24T08:05:58.931Z,2.43
2023-05-24T08:08:27.545Z,2.33
2023-05-24T08:10:56.232Z,2.30
2023-05-24T08:13:24.879Z,2.30
2023-05-24T08:15:54.849Z,2.10
2023-05-24T08:18:23.446Z,2.40
2023-05-24T08:20:52.071Z,3.03
2023-05-24T08:23:21.809Z,2.40
2023-05-24T08:25:50.379Z,2.70
2023-05-24T08:28:19.000Z,2.53
2023-05-24T08:30:48.131Z,2.87
2023-05-24T08:33:18.521Z,2.83
2023-05-24T08:35:47.362Z,2.30
2023-05-24T08:38:16.001Z,2.67
2023-05-24T08:40:44.645Z,2.60
2023-05-24T08:43:13.873Z,2.83
2023-05-24T08:45:42.887Z,2.20
2023-05-24T08:48:13.108Z,2.20
2023-05-24T08:50:43.922Z,2.40
2023-05-24T08:53:12.911Z,2.23
2023-05-24T08:55:43.515Z,2.63
2023-05-24T08:58:12.890Z,2.40
2023-05-24T09:00:41.525Z,2.00
2023-05-24T09:03:11.292Z,1.87
2023-05-24T09:05:41.540Z,1.90
2023-05-24T09:08:12.026Z,2.60
2023-05-24T09:10:52.773Z,2.27
2023-05-24T09:13:22.458Z,2.27
2023-05-24T09:15:51.281Z,2.40
2023-05-24T09:18:19.993Z,2.50
2023-05-24T09:20:48.807Z,2.37
2023-05-24T09:23:19.074Z,2.40
2023-05-24T09:25:48.394Z,2.17
2023-05-24T09:28:18.460Z,2.10
2023-05-24T09:30:48.080Z,2.20
2023-05-24T09:33:17.630Z,2.27
2023-05-24T09:35:46.282Z,2.37
2023-05-24T09:38:19.893Z,2.50
2023-05-24T09:40:48.528Z,2.30
2023-05-24T09:43:17.161Z,2.40
2023-05-24T09:45:46.860Z,2.50
2023-05-24T09:48:16.517Z,2.27
2023-05-24T09:50:47.385Z,2.10
2023-05-24T09:53:20.030Z,2.20
2023-05-24T09:55:48.934Z,2.27
2023-05-24T09:58:18.644Z,2.47
2023-05-24T10:00:47.699Z,2.70
2023-05-24T10:03:16.756Z,2.53
2023-05-24T10:05:47.642Z,2.63
2023-05-24T10:08:18.358Z,2.47
2023-05-24T10:10:48.518Z,2.40
2023-05-24T10:13:17.766Z,3.00
2023-05-24T10:15:46.902Z,2.20
2023-05-24T10:18:15.695Z,2.30
2023-05-24T10:20:45.588Z,2.20
2023-05-24T10:23:17.498Z,2.57
2023-05-24T10:25:48.390Z,2.67
2023-05-24T10:28:18.971Z,2.70
2023-05-24T10:30:52.627Z,2.47
2023-05-24T10:33:21.674Z,2.33
2023-05-24T10:35:51.208Z,2.70
2023-05-24T10:38:21.971Z,2.33
2023-05-24T10:40:50.970Z,2.97
2023-05-24T10:43:21.154Z,3.13
2023-05-24T10:45:50.840Z,2.70
2023-05-24T10:48:33.689Z,2.53
2023-05-24T10:51:03.062Z,2.70
2023-05-24T10:53:40.993Z,3.07
2023-05-24T10:56:10.830Z,2.70
2023-05-24T10:59:02.395Z,2.63
2023-05-24T11:01:31.986Z,2.67
2023-05-24T11:04:10.433Z,3.00
2023-05-24T11:06:49.358Z,2.67
2023-05-24T11:09:20.026Z,2.37
2023-05-24T11:11:49.908Z,2.93
2023-05-24T11:14:25.488Z,2.47
2023-05-24T11:16:54.413Z,2.80
2023-05-24T11:19:24.027Z,3.27
2023-05-24T11:21:53.196Z,2.73
2023-05-24T11:24:23.455Z,2.43
2023-05-24T11:26:52.642Z,2.67
2023-05-24T11:29:23.304Z,2.97
2023-05-24T11:31:52.733Z,2.17
2023-05-24T11:34:21.591Z,2.33
2023-05-24T11:36:53.006Z,2.70
2023-05-24T11:39:21.570Z,2.40
2023-05-24T11:41:50.254Z,2.60
2023-05-24T11:44:20.325Z,2.83
2023-05-24T11:46:50.632Z,2.60
2023-05-24T11:49:19.515Z,2.57
2023-05-24T11:51:48.084Z,2.63
2023-05-24T11:54:16.720Z,2.63
2023-05-24T11:56:45.305Z,2.60
2023-05-24T11:59:17.429Z,3.00
2023-05-24T12:01:46.346Z,2.57
2023-05-24T12:04:16.355Z,2.67
2023-05-24T12:06:46.081Z,2.40
2023-05-24T12:09:14.753Z,2.47
2023-05-24T12:11:44.417Z,2.67
2023-05-24T12:14:14.533Z,2.60
2023-05-24T12:16:44.085Z,2.40
2023-05-24T12:19:31.718Z,2.30
2023-05-24T12:22:01.990Z,2.97
2023-05-24T12:24:32.977Z,2.60
2023-05-24T12:27:03.041Z,2.27
2023-05-24T12:29:34.960Z,2.80
2023-05-24T12:32:04.057Z,2.67
2023-05-24T12:34:34.161Z,2.63
2023-05-24T12:37:04.160Z,2.87
2023-05-24T12:39:35.108Z,2.80
2023-05-24T12:42:04.274Z,3.20
2023-05-24T12:44:33.930Z,3.20
2023-05-24T12:47:03.484Z,2.80
2023-05-24T12:49:33.686Z,3.13
2023-05-24T12:52:02.771Z,3.27
2023-05-24T12:54:31.779Z,2.80
2023-05-24T12:57:03.067Z,2.57
2023-05-24T12:59:31.876Z,3.13
2023-05-24T13:02:00.671Z,2.70
2023-05-24T13:04:31.591Z,2.93
2023-05-24T13:07:02.780Z,3.07
2023-05-24T13:09:31.481Z,2.77
2023-05-24T13:12:00.168Z,2.40
2023-05-24T13:14:28.751Z,2.83
2023-05-24T13:16:57.380Z,2.57
2023-05-24T13:19:26.012Z,2.63
2023-05-24T13:21:55.518Z,2.53
2023-05-24T13:24:25.523Z,2.57
2023-05-24T13:26:55.049Z,2.70
2023-05-24T13:29:34.073Z,2.70
2023-05-24T13:32:08.405Z,2.47
2023-05-24T13:34:37.058Z,2.80
2023-05-24T13:37:05.662Z,2.73
2023-05-24T13:39:36.692Z,2.47
2023-05-24T13:42:05.699Z,3.00
2023-05-24T13:44:34.506Z,2.73
2023-05-24T13:47:03.464Z,2.67
2023-05-24T13:49:32.170Z,2.50
2023-05-24T13:52:01.384Z,2.50
2023-05-24T13:54:30.035Z,2.27
2023-05-24T13:56:59.950Z,2.53
2023-05-24T13:59:28.574Z,2.90
2023-05-24T14:01:57.422Z,2.47
2023-05-24T14:04:26.119Z,2.87
2023-05-24T14:06:54.812Z,3.23
2023-05-24T14:09:23.696Z,3.13
2023-05-24T14:11:52.480Z,2.93
2023-05-24T14:14:58.404Z,2.23
2023-05-24T14:17:11.161Z,2.47
2023-05-24T14:19:39.838Z,2.50
2023-05-24T14:22:08.408Z,3.00
2023-05-24T14:24:36.981Z,2.17
2023-05-24T14:27:06.959Z,3.23
2023-05-24T14:29:36.865Z,2.67
2023-05-24T14:32:05.641Z,2.77
2023-05-24T14:34:34.357Z,2.83
2023-05-24T14:37:02.978Z,2.70
2023-05-24T14:39:31.551Z,2.40
2023-05-24T14:42:00.164Z,2.30
2023-05-24T14:44:28.983Z,2.70
2023-05-24T14:46:58.940Z,2.70
2023-05-24T14:49:27.512Z,2.93
2023-05-24T14:51:56.208Z,2.03
2023-05-24T14:54:24.782Z,2.67
2023-05-24T14:56:53.443Z,2.77
2023-05-24T14:59:22.086Z,2.33
2023-05-24T15:01:50.861Z,2.17
2023-05-24T15:04:21.100Z,2.50
2023-05-24T15:06:49.663Z,2.00
2023-05-24T15:09:18.366Z,2.27
2023-05-24T15:11:47.007Z,2.30
2023-05-24T15:14:16.901Z,1.93
2023-05-24T15:16:45.565Z,2.17
2023-05-24T15:19:14.251Z,2.30
2023-05-24T15:21:44.173Z,2.47
2023-05-24T15:24:13.880Z,2.07
2023-05-24T15:26:42.868Z,1.93
2023-05-24T15:29:11.627Z,2.37
2023-05-24T15:31:40.606Z,2.10
2023-05-24T15:34:09.236Z,2.63
2023-05-24T15:36:38.513Z,2.20
2023-05-24T15:39:08.483Z,1.93
2023-05-24T15:41:37.739Z,1.90
2023-05-24T15:44:08.783Z,2.50
2023-05-24T15:46:37.823Z,2.30
2023-05-24T15:49:06.449Z,2.57
2023-05-24T15:52:02.642Z,2.70
2023-05-24T15:54:24.996Z,2.27
2023-05-24T15:56:53.621Z,2.30
2023-05-24T15:59:22.259Z,2.63
2023-05-24T16:01:51.367Z,2.37
2023-05-24T16:04:20.248Z,2.33
2023-05-24T16:06:49.252Z,2.20
2023-05-24T16:09:17.933Z,2.20
2023-05-24T16:11:48.850Z,2.27
2023-05-24T16:14:17.906Z,2.17
2023-05-24T16:16:46.584Z,2.50
2023-05-24T16:19:16.433Z,2.13
2023-05-24T16:21:45.150Z,2.07
2023-05-24T16:24:13.772Z,2.70
2023-05-24T16:26:42.514Z,2.20
2023-05-24T16:29:14.906Z,2.50
2023-05-24T16:31:43.596Z,1.97
2023-05-24T16:34:12.203Z,2.27
2023-05-24T16:36:41.134Z,2.07
2023-05-24T16:39:11.882Z,1.83
2023-05-24T16:41:40.518Z,2.63
2023-05-24T16:44:10.335Z,1.90
2023-05-24T16:46:40.301Z,2.63
2023-05-24T16:49:08.896Z,2.10
2023-05-24T16:51:38.184Z,2.20
2023-05-24T16:54:08.308Z,2.20
2023-05-24T16:56:38.165Z,2.47
2023-05-24T16:59:07.198Z,2.00
2023-05-24T17:01:37.229Z,1.97
2023-05-24T17:04:07.211Z,2.00
2023-05-24T17:06:36.375Z,2.07
2023-05-24T17:09:05.157Z,2.30
2023-05-24T17:11:33.783Z,1.93
2023-05-24T17:14:02.532Z,2.63
2023-05-24T17:16:31.577Z,2.70
2023-05-24T17:19:00.236Z,2.47
2023-05-24T17:21:30.662Z,2.50
2023-05-24T17:23:59.247Z,2.30
2023-05-24T17:26:28.028Z,1.80
2023-05-24T17:28:56.748Z,1.90
2023-05-24T17:31:25.563Z,2.20
2023-05-24T17:33:54.263Z,1.93
2023-05-24T17:36:22.895Z,2.10
2023-05-24T17:38:52.869Z,1.60
2023-05-24T17:41:21.455Z,2.03
2023-05-24T17:43:50.048Z,2.23
2023-05-24T17:46:18.736Z,1.83
2023-05-24T17:48:47.756Z,1.90
2023-05-24T17:51:19.352Z,2.50
2023-05-24T17:53:48.218Z,2.27
2023-05-24T17:56:18.391Z,2.07
2023-05-24T17:58:47.739Z,2.13
2023-05-24T18:01:16.481Z,1.93
2023-05-24T18:03:45.187Z,2.03
2023-05-24T18:06:13.849Z,1.80
2023-05-24T18:08:43.609Z,1.70
2023-05-24T18:11:13.348Z,1.90
2023-05-24T18:13:44.131Z,1.90
2023-05-24T18:16:13.349Z,2.00
2023-05-24T18:18:43.728Z,2.03
2023-05-24T18:21:13.060Z,1.80
2023-05-24T18:23:42.371Z,2.03
2023-05-24T18:26:11.924Z,1.90
2023-05-24T18:28:42.111Z,1.80
2023-05-24T18:31:13.317Z,2.07
2023-05-24T18:33:42.174Z,2.17
2023-05-24T18:36:12.430Z,2.07
2023-05-24T18:38:41.269Z,1.90
2023-05-24T18:41:12.164Z,1.70
2023-05-24T18:43:42.692Z,1.70
2023-05-24T18:46:13.744Z,2.00
2023-05-24T18:48:42.612Z,2.30
2023-05-24T18:51:11.280Z,2.17
2023-05-24T18:53:39.978Z,2.27
2023-05-24T18:56:08.592Z,2.10
2023-05-24T18:58:37.201Z,2.20
2023-05-24T19:01:06.075Z,2.00
2023-05-24T19:03:36.092Z,2.00
2023-05-24T19:06:04.717Z,2.30
2023-05-24T19:08:33.289Z,2.00
2023-05-24T19:11:02.020Z,2.10
2023-05-24T19:13:30.684Z,2.20
2023-05-24T19:16:00.503Z,2.23
2023-05-24T19:18:29.194Z,2.10
2023-05-24T19:20:59.224Z,2.50
2023-05-24T19:23:27.860Z,2.70
2023-05-24T19:25:56.516Z,2.37
2023-05-24T19:28:25.149Z,2.83
2023-05-24T19:30:53.805Z,2.40
2023-05-24T19:33:22.350Z,3.33
2023-05-24T19:35:51.558Z,2.83
2023-05-24T19:38:21.507Z,2.70
2023-05-24T19:40:50.160Z,2.70
2023-05-24T19:43:18.775Z,2.40
2023-05-24T19:45:47.952Z,2.70
2023-05-24T19:48:16.626Z,2.83
2023-05-24T19:50:47.205Z,2.70
2023-05-24T19:53:17.352Z,2.60
2023-05-24T19:55:47.258Z,2.63
2023-05-24T19:58:15.822Z,2.83
2023-05-24T20:00:44.449Z,2.83
2023-05-24T20:03:13.199Z,2.90
2023-05-24T20:05:42.149Z,3.20
2023-05-24T20:08:10.788Z,2.80
2023-05-24T20:10:39.916Z,2.80
2023-05-24T20:13:09.974Z,2.57
2023-05-24T20:15:38.547Z,2.50
2023-05-24T20:18:07.501Z,3.17
2023-05-24T20:20:36.246Z,2.90
2023-05-24T20:23:04.858Z,2.53
2023-05-24T20:25:33.437Z,2.83
2023-05-24T20:28:02.024Z,2.67
2023-05-24T20:30:32.146Z,2.80
2023-05-24T20:33:01.714Z,3.23
2023-05-24T20:35:30.501Z,2.70
2023-05-24T20:37:59.088Z,3.07
2023-05-24T20:40:27.697Z,2.90
2023-05-24T20:42:56.396Z,3.07
2023-05-24T20:45:25.723Z,2.80
2023-05-24T20:47:56.195Z,3.00
2023-05-24T20:50:24.949Z,3.10
2023-05-24T20:52:53.571Z,3.20
2023-05-24T20:55:23.108Z,2.83
2023-05-24T20:57:52.582Z,3.30
2023-05-24T21:00:21.277Z,2.90
2023-05-24T21:02:51.327Z,3.40
2023-05-24T21:05:21.451Z,3.20
2023-05-24T21:07:50.100Z,2.90
2023-05-24T21:10:19.512Z,3.20
2023-05-24T21:12:48.855Z,2.80
2023-05-24T21:15:17.681Z,2.97
2023-05-24T21:17:46.305Z,3.13
2023-05-24T21:20:15.027Z,3.17
2023-05-24T21:22:46.044Z,3.53
2023-05-24T21:25:14.740Z,3.73
2023-05-24T21:27:43.439Z,2.90
2023-05-24T21:30:12.412Z,2.63
2023-05-24T21:32:41.126Z,3.00
2023-05-24T21:35:10.155Z,3.10
2023-05-24T21:37:38.798Z,2.90
2023-05-24T21:40:09.525Z,3.10
2023-05-24T21:42:38.202Z,3.40
2023-05-24T21:45:07.222Z,3.00
2023-05-24T21:47:36.500Z,3.10
2023-05-24T21:50:05.325Z,3.13
2023-05-24T21:52:34.011Z,3.20
2023-05-24T21:55:02.678Z,3.20
2023-05-24T21:57:32.657Z,3.33
2023-05-24T22:00:01.329Z,3.23
2023-05-24T22:02:30.250Z,3.40
2023-05-24T22:04:58.946Z,3.23
2023-05-24T22:07:27.548Z,3.30
2023-05-24T22:09:56.113Z,2.90
2023-05-24T22:12:24.669Z,3.50
2023-05-24T22:14:54.617Z,3.60
2023-05-24T22:17:24.727Z,3.73
2023-05-24T22:19:54.071Z,3.53
2023-05-24T22:22:22.770Z,4.10
2023-05-24T22:24:51.398Z,3.87
2023-05-24T22:27:20.791Z,4.23
2023-05-24T22:29:49.442Z,3.60
2023-05-24T22:32:19.471Z,3.30
2023-05-24T22:34:48.139Z,4.27
2023-05-24T22:37:17.422Z,4.00
2023-05-24T22:39:46.157Z,3.63
2023-05-24T22:42:14.822Z,3.40
2023-05-24T22:44:43.441Z,3.93
2023-05-24T22:47:13.831Z,3.50
2023-05-24T22:49:43.971Z,3.40
2023-05-24T22:52:12.577Z,4.23
2023-05-24T22:54:41.239Z,4.10
2023-05-24T22:57:09.846Z,3.77
2023-05-24T22:59:38.476Z,3.70
2023-05-24T23:02:07.144Z,3.90
2023-05-24T23:04:35.733Z,3.60
2023-05-24T23:07:06.097Z,3.37
2023-05-24T23:09:35.341Z,3.97
2023-05-24T23:12:08.025Z,4.00
2023-05-24T23:14:38.814Z,3.80
2023-05-24T23:17:10.265Z,4.00
2023-05-24T23:19:42.148Z,3.30
2023-05-24T23:22:12.347Z,3.50
2023-05-24T23:24:41.896Z,3.43
2023-05-24T23:27:10.560Z,3.73
2023-05-24T23:29:39.832Z,3.27
2023-05-24T23:32:08.880Z,3.73
2023-05-24T23:34:37.597Z,3.93
2023-05-24T23:37:06.994Z,4.10
2023-05-24T23:39:36.980Z,3.80
2023-05-24T23:42:06.624Z,3.60
2023-05-24T23:44:36.166Z,3.47
2023-05-24T23:47:04.993Z,4.03
2023-05-24T23:49:33.813Z,3.60
2023-05-24T23:52:02.414Z,3.97
2023-05-24T23:54:31.621Z,3.73
2023-05-24T23:57:02.973Z,3.80
2023-05-24T23:59:31.563Z,3.40
